Time;durP1;ratioP1;P1;durP2;ratioP2;P2;SDS_P1;SDS_P2;PMS_P1;PMS_P2;Temp;Humidity;BMP_temperature;BMP_pressure;BME280_temperature;BME280_humidity;BME280_pressure;Samples;Min_cycle;Max_cycle;Signal;HPM_P1;HPM_P2
2022/10/04 00:00:55;;;;;;;;;;;;;;;;;;4986802;28;19953;-66
2022/10/04 00:03:21;;;;;;;;;;;;;;;;;;4987385;28;20000;-64
2022/10/04 00:05:47;;;;;;;;;;;;;;;;;;5000431;28;20398;-67
2022/10/04 00:08:13;;;;;;;;;;;;;;;;;;5007338;28;19964;-68
2022/10/04 00:10:39;;;;;;;;;;;;;;;;;;5007368;28;20408;-68
2022/10/04 00:13:05;;;;;;;;;;;;;;;;;;5006883;28;20001;-67
2022/10/04 00:15:31;;;;;;;;;;;;;;;;;;4986977;28;19914;-65
2022/10/04 00:17:56;;;;;;;;;;;;;;;;;;4987648;28;20787;-65
2022/10/04 00:20:22;;;;;;;;;;;;;;;;;;4985004;28;19971;-67
2022/10/04 00:22:48;;;;;;;;;;;;;;;;;;4987356;28;20375;-66
2022/10/04 00:25:16;;;;;;;;;;;;;;;;;;4986976;28;19921;-66
2022/10/04 00:27:42;;;;;;;;;;;;;;;;;;4987192;28;20291;-67
2022/10/04 00:30:08;;;;;;;;;;;;;;;;;;4992424;28;20207;-66
2022/10/04 00:32:33;;;;;;;;;;;;;;;;;;4998367;28;19917;-67
2022/10/04 00:34:59;;;;;;;;;;;;;;;;;;5006220;28;20004;-64
2022/10/04 00:37:25;;;;;;;;;;;;;;;;;;5003864;28;20295;-66
2022/10/04 00:39:51;;;;;;;;;;;;;;;;;;4983098;28;20395;-68
2022/10/04 00:42:17;;;;;;;;;;;;;;;;;;5004575;28;20000;-67
2022/10/04 00:44:43;;;;;;;;;;;;;;;;;;4969474;28;19992;-65
2022/10/04 00:47:09;;;;;;;;;;;;;;;;;;4968534;28;20033;-68
2022/10/04 00:49:36;;;;;;;;;;;;;;;;;;4986771;28;19921;-67
2022/10/04 00:52:02;;;;;;;;;;;;;;;;;;4990194;28;19948;-67
2022/10/04 00:54:29;;;;;;;;;;;;;;;;;;5004749;28;19957;-66
2022/10/04 00:56:55;;;;;;;;;;;;;;;;;;5009095;28;20673;-68
2022/10/04 00:59:21;;;;;;;;;;;;;;;;;;5006816;28;19918;-67
2022/10/04 01:01:47;;;;;;;;;;;;;;;;;;5008649;28;19936;-66
2022/10/04 01:04:13;;;;;;;;;;;;;;;;;;5005892;28;19914;-67
2022/10/04 01:06:39;;;;;;;;;;;;;;;;;;5005087;28;19925;-68
2022/10/04 01:09:05;;;;;;;;;;;;;;;;;;5006149;28;19916;-67
2022/10/04 01:11:31;;;;;;;;;;;;;;;;;;5005533;28;19918;-66
2022/10/04 01:13:57;;;;;;;;;;;;;;;;;;4990137;28;20362;-66
2022/10/04 01:16:23;;;;;;;;;;;;;;;;;;5006171;28;19909;-67
2022/10/04 01:18:49;;;;;;;;;;;;;;;;;;4990087;28;19914;-68
2022/10/04 01:21:15;;;;;;;;;;;;;;;;;;4989462;28;19917;-66
2022/10/04 01:23:41;;;;;;;;;;;;;;;;;;4990270;28;19914;-67
2022/10/04 01:26:07;;;;;;;;;;;;;;;;;;4989292;28;19914;-67
2022/10/04 01:28:33;;;;;;;;;;;;;;;;;;5009007;28;20000;-67
2022/10/04 01:30:59;;;;;;;;;;;;;;;;;;5008557;28;19913;-67
2022/10/04 01:33:25;;;;;;;;;;;;;;;;;;5009172;28;19916;-65
2022/10/04 01:35:51;;;;;;;;;;;;;;;;;;5004078;28;19940;-67
2022/10/04 01:38:16;;;;;;;;;;;;;;;;;;4993061;28;19921;-66
2022/10/04 01:40:42;;;;;;;;;;;;;;;;;;5003960;28;19918;-66
2022/10/04 01:43:08;;;;;;;;;;;;;;;;;;5005516;28;19916;-67
2022/10/04 01:45:34;;;;;;;;;;;;;;;;;;5008145;28;19921;-67
2022/10/04 01:48:00;;;;;;;;;;;;;;;;;;5009020;28;19914;-67
2022/10/04 01:50:26;;;;;;;;;;;;;;;;;;5008789;28;20342;-67
2022/10/04 01:52:52;;;;;;;;;;;;;;;;;;5008922;28;20496;-68
2022/10/04 01:55:18;;;;;;;;;;;;;;;;;;5004874;28;20000;-66
2022/10/04 01:57:44;;;;;;;;;;;;;;;;;;5008875;28;19918;-68
2022/10/04 02:00:11;;;;;;;;;;;;;;;;;;5003927;28;19916;-67
2022/10/04 02:02:37;;;;;;;;;;;;;;;;;;5008382;28;19918;-67
2022/10/04 02:05:02;;;;;;;;;;;;;;;;;;5000356;28;20396;-69
2022/10/04 02:07:28;;;;;;;;;;;;;;;;;;5008231;28;19916;-67
2022/10/04 02:09:54;;;;;;;;;;;;;;;;;;5002484;28;20532;-66
2022/10/04 02:12:20;;;;;;;;;;;;;;;;;;4992301;28;20345;-66
2022/10/04 02:14:51;;;;;;;;;;;;;;;;;;5008520;28;20437;-67
2022/10/04 02:17:17;;;;;;;;;;;;;;;;;;5008119;28;19952;-67
2022/10/04 02:19:43;;;;;;;;;;;;;;;;;;5004296;28;19957;-66
2022/10/04 02:22:09;;;;;;;;;;;;;;;;;;4988510;28;19913;-67
2022/10/04 02:24:35;;;;;;;;;;;;;;;;;;4988558;28;20337;-67
2022/10/04 02:27:01;;;;;;;;;;;;;;;;;;4988124;28;19944;-67
2022/10/04 02:29:27;;;;;;;;;;;;;;;;;;4988816;28;20360;-67
2022/10/04 02:34:38;;;;;;;;;;;;;;;;;;5002109;28;20386;-67
2022/10/04 02:37:04;;;;;;;;;;;;;;;;;;5007576;28;19910;-67
2022/10/04 02:39:30;;;;;;;;;;;;;;;;;;5004946;28;19921;-68
2022/10/04 02:41:56;;;;;;;;;;;;;;;;;;5002543;28;19913;-67
2022/10/04 02:44:22;;;;;;;;;;;;;;;;;;5005488;28;19920;-67
2022/10/04 02:46:49;;;;;;;;;;;;;;;;;;4999986;28;19913;-68
2022/10/04 02:49:15;;;;;;;;;;;;;;;;;;5009112;28;19917;-69
2022/10/04 02:51:41;;;;;;;;;;;;;;;;;;4989286;28;19939;-66
2022/10/04 02:54:07;;;;;;;;;;;;;;;;;;5007340;28;19914;-66
2022/10/04 02:56:33;;;;;;;;;;;;;;;;;;5003437;28;20391;-67
2022/10/04 02:58:59;;;;;;;;;;;;;;;;;;4987878;28;19910;-68
2022/10/04 03:01:26;;;;;;;;;;;;;;;;;;4986186;28;20422;-67
2022/10/04 03:03:52;;;;;;;;;;;;;;;;;;4987916;28;19920;-66
2022/10/04 03:06:18;;;;;;;;;;;;;;;;;;4969330;28;20295;-67
2022/10/04 03:08:44;;;;;;;;;;;;;;;;;;5005526;28;19918;-67
2022/10/04 03:11:10;;;;;;;;;;;;;;;;;;4998451;28;19932;-68
2022/10/04 03:13:36;;;;;;;;;;;;;;;;;;5007266;28;20367;-68
2022/10/04 03:16:01;;;;;;;;;;;;;;;;;;5001705;28;19937;-65
2022/10/04 03:18:27;;;;;;;;;;;;;;;;;;5004681;28;19921;-67
2022/10/04 03:20:53;;;;;;;;;;;;;;;;;;5001538;28;19973;-67
2022/10/04 03:23:19;;;;;;;;;;;;;;;;;;4995356;28;19916;-67
2022/10/04 03:25:45;;;;;;;;;;;;;;;;;;5001484;28;19925;-68
2022/10/04 03:28:11;;;;;;;;;;;;;;;;;;4984649;28;19917;-67
2022/10/04 03:30:37;;;;;;;;;;;;;;;;;;5005485;28;20060;-64
2022/10/04 03:33:03;;;;;;;;;;;;;;;;;;5009288;28;19925;-66
2022/10/04 03:35:29;;;;;;;;;;;;;;;;;;5002495;28;19921;-69
2022/10/04 03:37:55;;;;;;;;;;;;;;;;;;5006271;28;19909;-66
2022/10/04 03:40:21;;;;;;;;;;;;;;;;;;5005408;28;19925;-67
2022/10/04 03:42:50;;;;;;;;;;;;;;;;;;4982091;28;19915;-67
2022/10/04 03:45:16;;;;;;;;;;;;;;;;;;5001343;28;19917;-67
2022/10/04 03:47:42;;;;;;;;;;;;;;;;;;5005377;28;19909;-67
2022/10/04 03:50:08;;;;;;;;;;;;;;;;;;5004178;28;19913;-67
2022/10/04 03:52:34;;;;;;;;;;;;;;;;;;4989044;28;20394;-68
2022/10/04 03:55:00;;;;;;;;;;;;;;;;;;5006070;28;19917;-67
2022/10/04 03:57:25;;;;;;;;;;;;;;;;;;5006079;28;19936;-67
2022/10/04 03:59:51;;;;;;;;;;;;;;;;;;5006242;28;19992;-68
2022/10/04 04:02:17;;;;;;;;;;;;;;;;;;5005800;28;19921;-70
2022/10/04 04:04:43;;;;;;;;;;;;;;;;;;5008395;28;19916;-62
2022/10/04 04:07:09;;;;;;;;;;;;;;;;;;5011257;28;20478;-65
2022/10/04 04:09:35;;;;;;;;;;;;;;;;;;5011364;28;19909;-66
2022/10/04 04:12:01;;;;;;;;;;;;;;;;;;5010705;28;19932;-67
2022/10/04 04:14:26;;;;;;;;;;;;;;;;;;4997554;28;20420;-65
2022/10/04 04:16:55;;;;;;;;;;;;;;;;;;5011388;28;19910;-65
2022/10/04 04:19:23;;;;;;;;;;;;;;;;;;5005862;28;19920;-69
2022/10/04 04:21:49;;;;;;;;;;;;;;;;;;5013877;28;19910;-68
2022/10/04 04:24:15;;;;;;;;;;;;;;;;;;5004482;28;19910;-68
2022/10/04 04:26:41;;;;;;;;;;;;;;;;;;5010608;28;20374;-67
2022/10/04 04:29:07;;;;;;;;;;;;;;;;;;5012101;28;19916;-68
2022/10/04 04:31:33;;;;;;;;;;;;;;;;;;5013340;28;19949;-68
2022/10/04 04:33:59;;;;;;;;;;;;;;;;;;5011265;28;20379;-68
2022/10/04 04:36:25;;;;;;;;;;;;;;;;;;5011406;28;19916;-68
2022/10/04 04:41:35;;;;;;;;;;;;;;;;;;5020449;28;20337;-70
2022/10/04 04:44:01;;;;;;;;;;;;;;;;;;5012154;28;19913;-67
2022/10/04 04:46:30;;;;;;;;;;;;;;;;;;5014031;28;19959;-67
2022/10/04 04:48:57;;;;;;;;;;;;;;;;;;5016020;28;19913;-68
2022/10/04 04:51:23;;;;;;;;;;;;;;;;;;5014530;28;20280;-67
2022/10/04 04:53:49;;;;;;;;;;;;;;;;;;5015484;28;19940;-66
2022/10/04 04:56:15;;;;;;;;;;;;;;;;;;5014644;28;19948;-68
2022/10/04 04:58:42;;;;;;;;;;;;;;;;;;5009047;28;19936;-65
2022/10/04 05:01:08;;;;;;;;;;;;;;;;;;4993822;28;19952;-65
2022/10/04 05:03:34;;;;;;;;;;;;;;;;;;5012101;28;19913;-66
2022/10/04 05:06:01;;;;;;;;;;;;;;;;;;5011762;28;19921;-66
2022/10/04 05:08:27;;;;;;;;;;;;;;;;;;5012643;28;19914;-66
2022/10/04 05:10:54;;;;;;;;;;;;;;;;;;5012974;28;19906;-67
2022/10/04 05:13:20;;;;;;;;;;;;;;;;;;5013331;28;19953;-70
2022/10/04 05:15:45;;;;;;;;;;;;;;;;;;5010869;28;20007;-65
2022/10/04 05:18:16;;;;;;;;;;;;;;;;;;5013387;28;19906;-67
2022/10/04 05:20:42;;;;;;;;;;;;;;;;;;5013172;28;19909;-67
2022/10/04 05:23:08;;;;;;;;;;;;;;;;;;5013641;28;19916;-67
2022/10/04 05:25:34;;;;;;;;;;;;;;;;;;5012563;28;20357;-67
2022/10/04 05:28:00;;;;;;;;;;;;;;;;;;5009037;28;19910;-67
2022/10/04 05:30:26;;;;;;;;;;;;;;;;;;4991570;28;19913;-66
2022/10/04 05:32:52;;;;;;;;;;;;;;;;;;4996643;28;20009;-67
2022/10/04 05:35:18;;;;;;;;;;;;;;;;;;4975073;28;19916;-67
2022/10/04 05:37:44;;;;;;;;;;;;;;;;;;4975192;28;19917;-67
2022/10/04 05:40:10;;;;;;;;;;;;;;;;;;4975433;28;19918;-67
2022/10/04 05:42:37;;;;;;;;;;;;;;;;;;5003161;28;19910;-66
2022/10/04 05:45:03;;;;;;;;;;;;;;;;;;5012096;28;19914;-66
2022/10/04 05:47:29;;;;;;;;;;;;;;;;;;5012103;28;20444;-66
2022/10/04 05:49:55;;;;;;;;;;;;;;;;;;5012230;28;19920;-67
2022/10/04 05:52:21;;;;;;;;;;;;;;;;;;5012052;28;19909;-67
2022/10/04 05:54:50;;;;;;;;;;;;;;;;;;5012362;28;19916;-67
2022/10/04 05:57:16;;;;;;;;;;;;;;;;;;5014094;28;19971;-67
2022/10/04 05:59:42;;;;;;;;;;;;;;;;;;5013984;28;20000;-66
2022/10/04 06:02:08;;;;;;;;;;;;;;;;;;5013606;28;19913;-67
2022/10/04 06:04:34;;;;;;;;;;;;;;;;;;5011167;28;20008;-68
2022/10/04 06:07:00;;;;;;;;;;;;;;;;;;4992907;28;19921;-63
2022/10/04 06:09:26;;;;;;;;;;;;;;;;;;4993064;28;20562;-64
2022/10/04 06:11:52;;;;;;;;;;;;;;;;;;4992496;28;19916;-64
2022/10/04 06:14:17;;;;;;;;;;;;;;;;;;4993902;28;19914;-64
2022/10/04 06:16:43;;;;;;;;;;;;;;;;;;5003346;28;19909;-64
2022/10/04 06:19:09;;;;;;;;;;;;;;;;;;4993600;28;19910;-64
2022/10/04 06:21:35;;;;;;;;;;;;;;;;;;4991427;28;19910;-64
2022/10/04 06:24:01;;;;;;;;;;;;;;;;;;4993381;28;20437;-64
2022/10/04 06:26:27;;;;;;;;;;;;;;;;;;4992864;28;19914;-63
2022/10/04 06:28:53;;;;;;;;;;;;;;;;;;4993357;28;19937;-64
2022/10/04 06:31:19;;;;;;;;;;;;;;;;;;4991976;28;19984;-63
2022/10/04 06:33:44;;;;;;;;;;;;;;;;;;4993117;28;19909;-63
2022/10/04 06:36:10;;;;;;;;;;;;;;;;;;4992782;28;20001;-63
2022/10/04 06:38:36;;;;;;;;;;;;;;;;;;4993016;28;19925;-62
2022/10/04 06:41:02;;;;;;;;;;;;;;;;;;4994578;28;19981;-64
2022/10/04 06:43:28;;;;;;;;;;;;;;;;;;5008709;28;20428;-64
2022/10/04 06:45:54;;;;;;;;;;;;;;;;;;5011880;28;19914;-66
2022/10/04 06:48:20;;;;;;;;;;;;;;;;;;5012757;28;19980;-63
2022/10/04 06:50:45;;;;;;;;;;;;;;;;;;5011733;28;20468;-64
2022/10/04 06:53:14;;;;;;;;;;;;;;;;;;5012082;28;19960;-63
2022/10/04 06:55:40;;;;;;;;;;;;;;;;;;5011825;28;19917;-63
2022/10/04 06:58:08;;;;;;;;;;;;;;;;;;5012383;28;19917;-63
2022/10/04 07:00:34;;;;;;;;;;;;;;;;;;5011095;28;19941;-63
2022/10/04 07:03:00;;;;;;;;;;;;;;;;;;5012334;28;19956;-64
2022/10/04 07:05:29;;;;;;;;;;;;;;;;;;5011811;28;19917;-63
2022/10/04 07:08:05;;;;;;;;;;;;;;;;;;5012126;28;19909;-64
2022/10/04 07:10:31;;;;;;;;;;;;;;;;;;5011438;28;20430;-63
2022/10/04 07:12:57;;;;;;;;;;;;;;;;;;5012204;28;19997;-64
2022/10/04 07:15:23;;;;;;;;;;;;;;;;;;5011698;28;19987;-63
2022/10/04 07:17:49;;;;;;;;;;;;;;;;;;5011932;28;19916;-64
2022/10/04 07:20:15;;;;;;;;;;;;;;;;;;5011476;28;19909;-64
2022/10/04 07:22:41;;;;;;;;;;;;;;;;;;5011855;28;20395;-64
2022/10/04 07:25:07;;;;;;;;;;;;;;;;;;5012103;28;20036;-64
2022/10/04 07:27:33;;;;;;;;;;;;;;;;;;5013460;28;19909;-63
2022/10/04 07:29:58;;;;;;;;;;;;;;;;;;5011354;28;19925;-63
2022/10/04 07:32:25;;;;;;;;;;;;;;;;;;5011331;28;19920;-64
2022/10/04 07:34:50;;;;;;;;;;;;;;;;;;5011706;28;19918;-65
2022/10/04 07:37:16;;;;;;;;;;;;;;;;;;5011253;28;19913;-64
2022/10/04 07:39:42;;;;;;;;;;;;;;;;;;5011053;28;20004;-63
2022/10/04 07:42:08;;;;;;;;;;;;;;;;;;5011641;28;20362;-64
2022/10/04 07:44:34;;;;;;;;;;;;;;;;;;5011541;28;19916;-63
2022/10/04 07:47:00;;;;;;;;;;;;;;;;;;5009908;28;19913;-63
2022/10/04 07:49:26;;;;;;;;;;;;;;;;;;5009246;28;19916;-63
2022/10/04 07:51:52;;;;;;;;;;;;;;;;;;5011018;28;20326;-63
2022/10/04 07:54:18;;;;;;;;;;;;;;;;;;5011567;28;20381;-64
2022/10/04 07:56:44;;;;;;;;;;;;;;;;;;5010818;28;19917;-63
2022/10/04 07:59:09;;;;;;;;;;;;;;;;;;5011465;28;19916;-64
2022/10/04 08:01:35;;;;;;;;;;;;;;;;;;5010505;28;19914;-64
2022/10/04 08:04:01;;;;;;;;;;;;;;;;;;5011357;28;19936;-64
2022/10/04 08:06:27;;;;;;;;;;;;;;;;;;5013597;28;20379;-64
2022/10/04 08:08:53;;;;;;;;;;;;;;;;;;5013064;28;20004;-63
2022/10/04 08:11:19;;;;;;;;;;;;;;;;;;5015038;28;19910;-63
2022/10/04 08:13:45;;;;;;;;;;;;;;;;;;5015296;28;20468;-64
2022/10/04 08:16:10;;;;;;;;;;;;;;;;;;5014679;28;19916;-64
2022/10/04 08:18:36;;;;;;;;;;;;;;;;;;5015249;28;19964;-64
2022/10/04 08:21:02;;;;;;;;;;;;;;;;;;5014765;28;20355;-64
2022/10/04 08:23:28;;;;;;;;;;;;;;;;;;5015154;28;19917;-64
2022/10/04 08:25:54;;;;;;;;;;;;;;;;;;5016962;28;19913;-64
2022/10/04 08:31:05;;;;;;;;;;;;;;;;;;5014176;28;19920;-64
2022/10/04 08:33:31;;;;;;;;;;;;;;;;;;5014879;28;19916;-63
2022/10/04 08:35:57;;;;;;;;;;;;;;;;;;5014350;28;19995;-63
2022/10/04 08:38:22;;;;;;;;;;;;;;;;;;5014858;28;19918;-64
2022/10/04 08:40:48;;;;;;;;;;;;;;;;;;5014247;28;19910;-63
2022/10/04 08:43:14;;;;;;;;;;;;;;;;;;5010386;28;19917;-63
2022/10/04 08:45:42;;;;;;;;;;;;;;;;;;5010634;28;20016;-63
2022/10/04 08:48:09;;;;;;;;;;;;;;;;;;5014937;28;20386;-63
2022/10/04 08:50:36;;;;;;;;;;;;;;;;;;5014151;28;19936;-63
2022/10/04 08:53:02;;;;;;;;;;;;;;;;;;5008841;28;20371;-64
2022/10/04 08:55:27;;;;;;;;;;;;;;;;;;5014225;28;19917;-63
2022/10/04 08:57:53;;;;;;;;;;;;;;;;;;5014503;28;20380;-63
2022/10/04 09:00:19;;;;;;;;;;;;;;;;;;5013992;28;19909;-63
2022/10/04 09:02:46;;;;;;;;;;;;;;;;;;5013956;28;20367;-63
2022/10/04 09:05:13;;;;;;;;;;;;;;;;;;5014147;28;19909;-62
2022/10/04 09:07:39;;;;;;;;;;;;;;;;;;5014189;28;19909;-64
2022/10/04 09:10:05;;;;;;;;;;;;;;;;;;5013657;28;20307;-64
2022/10/04 09:12:31;;;;;;;;;;;;;;;;;;5014248;28;19910;-64
2022/10/04 09:14:57;;;;;;;;;;;;;;;;;;5014068;28;20334;-64
2022/10/04 09:17:23;;;;;;;;;;;;;;;;;;5013562;28;20008;-64
2022/10/04 09:19:49;;;;;;;;;;;;;;;;;;5013427;28;19913;-63
2022/10/04 09:22:14;;;;;;;;;;;;;;;;;;5016679;28;19910;-63
2022/10/04 09:24:42;;;;;;;;;;;;;;;;;;5013991;28;19909;-63
2022/10/04 09:27:09;;;;;;;;;;;;;;;;;;5013489;28;20298;-64
2022/10/04 09:29:35;;;;;;;;;;;;;;;;;;5013882;28;19910;-63
2022/10/04 09:32:00;;;;;;;;;;;;;;;;;;5012897;28;19913;-64
2022/10/04 09:34:26;;;;;;;;;;;;;;;;;;5013884;28;19996;-64
2022/10/04 09:36:52;;;;;;;;;;;;;;;;;;5013028;28;19940;-64
2022/10/04 09:39:18;;;;;;;;;;;;;;;;;;5013740;28;19986;-64
2022/10/04 09:41:44;;;;;;;;;;;;;;;;;;5013032;28;20374;-64
2022/10/04 09:44:12;;;;;;;;;;;;;;;;;;5013515;28;19909;-64
2022/10/04 09:46:38;;;;;;;;;;;;;;;;;;5013002;28;19920;-63
2022/10/04 09:49:04;;;;;;;;;;;;;;;;;;5013559;28;19917;-64
2022/10/04 09:51:30;;;;;;;;;;;;;;;;;;5009637;28;20014;-63
2022/10/04 09:53:56;;;;;;;;;;;;;;;;;;5013421;28;19910;-63
2022/10/04 09:56:21;;;;;;;;;;;;;;;;;;5012963;28;20095;-64
2022/10/04 09:58:50;;;;;;;;;;;;;;;;;;5013248;28;20341;-63
2022/10/04 10:01:16;;;;;;;;;;;;;;;;;;5012334;28;20427;-64
2022/10/04 10:03:41;;;;;;;;;;;;;;;;;;5013230;28;19945;-64
2022/10/04 10:06:07;;;;;;;;;;;;;;;;;;5012524;28;19918;-63
2022/10/04 10:08:33;;;;;;;;;;;;;;;;;;5013356;28;19913;-64
2022/10/04 10:13:43;;;;;;;;;;;;;;;;;;5013220;28;19916;-63
2022/10/04 10:16:09;;;;;;;;;;;;;;;;;;5012578;28;19913;-64
2022/10/04 10:18:35;;;;;;;;;;;;;;;;;;5012993;28;19964;-64
2022/10/04 10:21:01;;;;;;;;;;;;;;;;;;5012264;28;19913;-63
2022/10/04 10:23:29;;;;;;;;;;;;;;;;;;5013065;28;19914;-63
2022/10/04 10:25:57;;;;;;;;;;;;;;;;;;5012211;28;20028;-63
2022/10/04 10:28:24;;;;;;;;;;;;;;;;;;5014686;28;19917;-63
2022/10/04 10:30:49;;;;;;;;;;;;;;;;;;5011619;28;20295;-63
2022/10/04 10:33:16;;;;;;;;;;;;;;;;;;5012828;28;19910;-64
2022/10/04 10:35:42;;;;;;;;;;;;;;;;;;5012099;28;19920;-64
2022/10/04 10:38:07;;;;;;;;;;;;;;;;;;5012644;28;19921;-64
2022/10/04 10:40:33;;;;;;;;;;;;;;;;;;5011850;28;19916;-63
2022/10/04 10:42:59;;;;;;;;;;;;;;;;;;5012728;28;19913;-64
2022/10/04 10:45:26;;;;;;;;;;;;;;;;;;5008653;28;20334;-64
2022/10/04 10:47:54;;;;;;;;;;;;;;;;;;5012274;28;19963;-63
2022/10/04 10:50:20;;;;;;;;;;;;;;;;;;5011862;28;19910;-63
2022/10/04 10:52:46;;;;;;;;;;;;;;;;;;5012541;28;19917;-64
2022/10/04 10:55:12;;;;;;;;;;;;;;;;;;5012091;28;19914;-61
2022/10/04 10:57:39;;;;;;;;;;;;;;;;;;5012276;28;19913;-63
2022/10/04 11:00:06;;;;;;;;;;;;;;;;;;5011811;28;19910;-64
2022/10/04 11:02:35;;;;;;;;;;;;;;;;;;5012020;28;19953;-63
2022/10/04 11:05:01;;;;;;;;;;;;;;;;;;5012014;28;20306;-64
2022/10/04 11:07:26;;;;;;;;;;;;;;;;;;5011917;28;19981;-63
2022/10/04 11:09:53;;;;;;;;;;;;;;;;;;5011399;28;19909;-63
2022/10/04 11:12:19;;;;;;;;;;;;;;;;;;5012220;28;20374;-64
2022/10/04 11:14:45;;;;;;;;;;;;;;;;;;5012021;28;19916;-63
2022/10/04 11:17:11;;;;;;;;;;;;;;;;;;5011633;28;19913;-64
2022/10/04 11:19:37;;;;;;;;;;;;;;;;;;5011950;28;19910;-63
2022/10/04 11:22:06;;;;;;;;;;;;;;;;;;5011498;28;19909;-64
2022/10/04 11:24:33;;;;;;;;;;;;;;;;;;5011895;28;19918;-63
2022/10/04 11:26:59;;;;;;;;;;;;;;;;;;5008123;28;20013;-64
2022/10/04 11:29:25;;;;;;;;;;;;;;;;;;4992751;28;19945;-63
2022/10/04 11:31:52;;;;;;;;;;;;;;;;;;4991379;28;19984;-63
2022/10/04 11:34:18;;;;;;;;;;;;;;;;;;4992099;28;19980;-64
2022/10/04 11:36:44;;;;;;;;;;;;;;;;;;4991785;28;20338;-64
2022/10/04 11:39:10;;;;;;;;;;;;;;;;;;4992139;28;19918;-64
2022/10/04 11:41:37;;;;;;;;;;;;;;;;;;4991704;28;19914;-64
2022/10/04 11:44:02;;;;;;;;;;;;;;;;;;5003988;28;19913;-64
2022/10/04 11:46:32;;;;;;;;;;;;;;;;;;5010903;28;19920;-64
2022/10/04 11:48:58;;;;;;;;;;;;;;;;;;5011766;28;20369;-64
2022/10/04 11:51:25;;;;;;;;;;;;;;;;;;5010993;28;19963;-63
2022/10/04 11:53:51;;;;;;;;;;;;;;;;;;5011519;28;19917;-64
2022/10/04 11:56:18;;;;;;;;;;;;;;;;;;5010901;28;19952;-65
2022/10/04 11:58:43;;;;;;;;;;;;;;;;;;5011672;28;19973;-64
2022/10/04 12:01:09;;;;;;;;;;;;;;;;;;5010396;28;20340;-64
2022/10/04 12:03:36;;;;;;;;;;;;;;;;;;5011485;28;19914;-63
2022/10/04 12:06:02;;;;;;;;;;;;;;;;;;5010591;28;20283;-64
2022/10/04 12:08:28;;;;;;;;;;;;;;;;;;5011645;28;20423;-62
2022/10/04 12:10:54;;;;;;;;;;;;;;;;;;5010488;28;19913;-63
2022/10/04 12:13:20;;;;;;;;;;;;;;;;;;5011619;28;19914;-64
2022/10/04 12:15:48;;;;;;;;;;;;;;;;;;5010448;28;19948;-64
2022/10/04 12:18:14;;;;;;;;;;;;;;;;;;5011368;28;19909;-63
2022/10/04 12:20:40;;;;;;;;;;;;;;;;;;5010536;28;20437;-64
2022/10/04 12:23:05;;;;;;;;;;;;;;;;;;5013888;28;20349;-64
2022/10/04 12:25:31;;;;;;;;;;;;;;;;;;5010447;28;20302;-63
2022/10/04 12:27:58;;;;;;;;;;;;;;;;;;5011250;28;19917;-63
2022/10/04 12:30:24;;;;;;;;;;;;;;;;;;5009985;28;19917;-63
2022/10/04 12:32:53;;;;;;;;;;;;;;;;;;5011157;28;19910;-63
2022/10/04 12:35:19;;;;;;;;;;;;;;;;;;5009423;28;19913;-63
2022/10/04 12:37:44;;;;;;;;;;;;;;;;;;5008793;28;19932;-63
2022/10/04 12:40:10;;;;;;;;;;;;;;;;;;5010558;28;19910;-64
2022/10/04 12:42:36;;;;;;;;;;;;;;;;;;5010944;28;19956;-63
2022/10/04 12:45:02;;;;;;;;;;;;;;;;;;5010774;28;19917;-63
2022/10/04 12:47:28;;;;;;;;;;;;;;;;;;5010782;28;20287;-63
2022/10/04 12:49:55;;;;;;;;;;;;;;;;;;5010564;28;20128;-64
2022/10/04 12:52:22;;;;;;;;;;;;;;;;;;5013357;28;19980;-63
2022/10/04 12:54:47;;;;;;;;;;;;;;;;;;5014391;28;19913;-63
2022/10/04 12:57:13;;;;;;;;;;;;;;;;;;5014284;28;20286;-64
2022/10/04 12:59:39;;;;;;;;;;;;;;;;;;5014502;28;19916;-64
2022/10/04 13:02:05;;;;;;;;;;;;;;;;;;5013244;28;20360;-64
2022/10/04 13:04:31;;;;;;;;;;;;;;;;;;5014593;28;19957;-63
2022/10/04 13:06:58;;;;;;;;;;;;;;;;;;5013918;28;19987;-63
2022/10/04 13:09:24;;;;;;;;;;;;;;;;;;5014410;28;20291;-64
2022/10/04 13:11:52;;;;;;;;;;;;;;;;;;5013503;28;19916;-64
2022/10/04 13:14:18;;;;;;;;;;;;;;;;;;5014345;28;21341;-62
2022/10/04 13:16:43;;;;;;;;;;;;;;;;;;5013688;28;19910;-64
2022/10/04 13:19:09;;;;;;;;;;;;;;;;;;5014243;28;19910;-63
2022/10/04 13:21:35;;;;;;;;;;;;;;;;;;5013503;28;19916;-64
2022/10/04 13:24:01;;;;;;;;;;;;;;;;;;5013967;28;19957;-64
2022/10/04 13:26:27;;;;;;;;;;;;;;;;;;5014128;28;20393;-64
2022/10/04 13:28:53;;;;;;;;;;;;;;;;;;5015640;28;19913;-64
2022/10/04 13:31:22;;;;;;;;;;;;;;;;;;5012719;28;20032;-62
2022/10/04 13:33:48;;;;;;;;;;;;;;;;;;5013981;28;19910;-64
2022/10/04 13:36:15;;;;;;;;;;;;;;;;;;5013381;28;19916;-64
2022/10/04 13:38:41;;;;;;;;;;;;;;;;;;5013697;28;19921;-63
2022/10/04 13:41:07;;;;;;;;;;;;;;;;;;5012861;28;19909;-63
2022/10/04 13:43:33;;;;;;;;;;;;;;;;;;5013831;28;19909;-63
2022/10/04 13:45:59;;;;;;;;;;;;;;;;;;5013057;28;19914;-64
2022/10/04 13:48:25;;;;;;;;;;;;;;;;;;5013624;28;20367;-64
2022/10/04 13:50:51;;;;;;;;;;;;;;;;;;5008220;28;19921;-63
2022/10/04 13:58:46;;;;;;;;;;;;;;;;;;5013375;28;19916;-63
2022/10/04 14:01:12;;;;;;;;;;;;;;;;;;5012332;28;19914;-63
2022/10/04 14:03:38;;;;;;;;;;;;;;;;;;5012484;28;20446;-64
2022/10/04 14:06:03;;;;;;;;;;;;;;;;;;5012333;28;20008;-64
2022/10/04 14:08:29;;;;;;;;;;;;;;;;;;5013200;28;19917;-64
2022/10/04 14:10:55;;;;;;;;;;;;;;;;;;5012641;28;19913;-64
2022/10/04 14:13:22;;;;;;;;;;;;;;;;;;5013224;28;20382;-63
2022/10/04 14:15:48;;;;;;;;;;;;;;;;;;5012338;28;19920;-64
2022/10/04 14:18:13;;;;;;;;;;;;;;;;;;5012972;28;19906;-64
2022/10/04 14:20:40;;;;;;;;;;;;;;;;;;5014986;28;19916;-64
2022/10/04 14:23:07;;;;;;;;;;;;;;;;;;5013093;28;19917;-65
2022/10/04 14:25:33;;;;;;;;;;;;;;;;;;5012245;28;19948;-63
2022/10/04 14:27:59;;;;;;;;;;;;;;;;;;5012790;28;20322;-64
2022/10/04 14:30:25;;;;;;;;;;;;;;;;;;5011881;28;19937;-65
2022/10/04 14:32:51;;;;;;;;;;;;;;;;;;5004575;28;19990;-67
2022/10/04 14:35:17;;;;;;;;;;;;;;;;;;4989663;28;20005;-65
2022/10/04 14:37:43;;;;;;;;;;;;;;;;;;4986887;28;20301;-66
2022/10/04 14:40:08;;;;;;;;;;;;;;;;;;5003113;28;19918;-66
2022/10/04 14:42:34;;;;;;;;;;;;;;;;;;5006850;28;19913;-66
2022/10/04 14:45:03;;;;;;;;;;;;;;;;;;5007212;28;19920;-66
2022/10/04 14:47:28;;;;;;;;;;;;;;;;;;5005628;28;19957;-66
2022/10/04 14:49:56;;;;;;;;;;;;;;;;;;5006273;28;19956;-67
2022/10/04 14:52:22;;;;;;;;;;;;;;;;;;5006289;28;20406;-66
2022/10/04 14:54:48;;;;;;;;;;;;;;;;;;5005744;28;19952;-66
2022/10/04 14:57:13;;;;;;;;;;;;;;;;;;5005922;28;19909;-67
2022/10/04 14:59:41;;;;;;;;;;;;;;;;;;5006641;28;19913;-67
2022/10/04 15:02:07;;;;;;;;;;;;;;;;;;5004835;28;19979;-67
2022/10/04 15:04:33;;;;;;;;;;;;;;;;;;4994685;28;20425;-66
2022/10/04 15:06:59;;;;;;;;;;;;;;;;;;4985585;28;19920;-67
2022/10/04 15:09:25;;;;;;;;;;;;;;;;;;4986409;28;19917;-66
2022/10/04 15:11:53;;;;;;;;;;;;;;;;;;4985855;28;19909;-65
2022/10/04 15:14:20;;;;;;;;;;;;;;;;;;4986184;28;20452;-65
2022/10/04 15:16:46;;;;;;;;;;;;;;;;;;4985449;28;19921;-65
2022/10/04 15:19:13;;;;;;;;;;;;;;;;;;5001897;28;19913;-65
2022/10/04 15:21:38;;;;;;;;;;;;;;;;;;4989814;28;19920;-66
2022/10/04 15:24:04;;;;;;;;;;;;;;;;;;5000605;28;19918;-65
2022/10/04 15:26:31;;;;;;;;;;;;;;;;;;5005157;28;20383;-64
2022/10/04 15:28:58;;;;;;;;;;;;;;;;;;5005618;28;19944;-66
2022/10/04 15:31:24;;;;;;;;;;;;;;;;;;4996526;28;20343;-66
2022/10/04 15:33:50;;;;;;;;;;;;;;;;;;5005915;28;19996;-63
2022/10/04 15:36:16;;;;;;;;;;;;;;;;;;5005363;28;19933;-65
2022/10/04 15:38:42;;;;;;;;;;;;;;;;;;5006180;28;19921;-66
2022/10/04 15:41:08;;;;;;;;;;;;;;;;;;5004514;28;20371;-66
2022/10/04 15:43:34;;;;;;;;;;;;;;;;;;5005659;28;19972;-66
2022/10/04 15:46:00;;;;;;;;;;;;;;;;;;5004738;28;20000;-66
2022/10/04 15:48:28;;;;;;;;;;;;;;;;;;4998112;28;19925;-64
2022/10/04 15:50:54;;;;;;;;;;;;;;;;;;5004539;28;20337;-66
2022/10/04 15:53:22;;;;;;;;;;;;;;;;;;5002214;28;19928;-66
2022/10/04 15:55:48;;;;;;;;;;;;;;;;;;5003226;28;20419;-66
2022/10/04 15:58:15;;;;;;;;;;;;;;;;;;5003818;28;20421;-66
2022/10/04 16:00:42;;;;;;;;;;;;;;;;;;5002004;28;19914;-62
2022/10/04 16:03:09;;;;;;;;;;;;;;;;;;5003200;28;20335;-65
2022/10/04 16:05:36;;;;;;;;;;;;;;;;;;5002949;28;19932;-65
2022/10/04 16:08:02;;;;;;;;;;;;;;;;;;5003874;28;20000;-63
2022/10/04 16:10:29;;;;;;;;;;;;;;;;;;5003055;28;20373;-65
2022/10/04 16:12:55;;;;;;;;;;;;;;;;;;5003579;28;19914;-66
2022/10/04 16:15:21;;;;;;;;;;;;;;;;;;5005376;28;20280;-65
2022/10/04 16:17:47;;;;;;;;;;;;;;;;;;5002756;28;20446;-64
2022/10/04 16:20:13;;;;;;;;;;;;;;;;;;5002756;28;19913;-66
2022/10/04 16:22:40;;;;;;;;;;;;;;;;;;5003324;28;19916;-63
2022/10/04 16:25:05;;;;;;;;;;;;;;;;;;5002777;28;19914;-66
2022/10/04 16:27:31;;;;;;;;;;;;;;;;;;5005463;28;19969;-65
2022/10/04 16:29:57;;;;;;;;;;;;;;;;;;5007028;28;19937;-65
2022/10/04 16:32:26;;;;;;;;;;;;;;;;;;5005355;28;19967;-65
2022/10/04 16:34:52;;;;;;;;;;;;;;;;;;5006700;28;19917;-63
2022/10/04 16:37:17;;;;;;;;;;;;;;;;;;5000066;28;20363;-65
2022/10/04 16:39:59;;;;;;;;;;;;;;;;;;5010906;28;19956;-64
2022/10/04 16:42:24;;;;;;;;;;;;;;;;;;5009317;28;19910;-62
2022/10/04 16:44:50;;;;;;;;;;;;;;;;;;5011482;28;20379;-64
2022/10/04 16:47:16;;;;;;;;;;;;;;;;;;5008343;28;19913;-64
2022/10/04 16:49:42;;;;;;;;;;;;;;;;;;5006790;28;20092;-65
2022/10/04 16:52:08;;;;;;;;;;;;;;;;;;5006539;28;20000;-65
2022/10/04 16:54:34;;;;;;;;;;;;;;;;;;5006910;28;20009;-65